createdAt,value
2019-04-20T00:01:07.347Z,47.20
2019-04-20T00:03:41.706Z,47.50
2019-04-20T00:06:09.203Z,47.50
2019-04-20T00:08:41.502Z,47.70
2019-04-20T00:11:17.790Z,47.80
2019-04-20T00:13:52.555Z,47.90
2019-04-20T00:16:16.527Z,47.90
2019-04-20T00:18:51.915Z,48.20
2019-04-20T00:21:42.747Z,48.40
2019-04-20T00:24:16.977Z,49.10
2019-04-20T00:27:10.592Z,48.80
2019-04-20T00:29:38.233Z,49.10
2019-04-20T00:31:59.363Z,49.30
2019-04-20T00:34:26.648Z,49.30
2019-04-20T00:36:51.919Z,49.60
2019-04-20T00:39:22.036Z,49.80
2019-04-20T00:41:58.735Z,49.90
2019-04-20T00:44:29.706Z,49.90
2019-04-20T00:47:08.618Z,50.10
2019-04-20T00:49:41.916Z,50.60
2019-04-20T00:52:26.161Z,51.50
2019-04-20T00:54:30.422Z,51.80
2019-04-20T00:57:13.368Z,52.00
2019-04-20T00:59:51.875Z,52.20
2019-04-20T01:02:19.395Z,52.40
2019-04-20T01:04:54.964Z,52.60
2019-04-20T01:07:44.364Z,52.50
2019-04-20T01:10:13.192Z,52.10
2019-04-20T01:12:44.412Z,52.60
2019-04-20T01:15:26.851Z,52.90
2019-04-20T01:17:47.917Z,53.00
2019-04-20T01:20:17.872Z,53.30
2019-04-20T01:22:56.762Z,53.60
2019-04-20T01:25:27.261Z,53.70
2019-04-20T01:28:09.071Z,53.90
2019-04-20T01:30:30.201Z,53.90
2019-04-20T01:33:08.637Z,54.30
2019-04-20T01:35:45.055Z,54.50
2019-04-20T01:38:16.647Z,54.70
2019-04-20T01:40:29.725Z,54.80
2019-04-20T01:42:59.617Z,55.10
2019-04-20T01:45:35.655Z,55.20
2019-04-20T01:48:02.883Z,55.40
2019-04-20T01:50:35.297Z,55.60
2019-04-20T01:53:12.765Z,55.80
2019-04-20T01:55:50.801Z,55.90
2019-04-20T01:58:36.362Z,56.00
2019-04-20T02:01:17.865Z,56.20
2019-04-20T02:03:54.117Z,56.40
2019-04-20T02:06:25.042Z,56.70
2019-04-20T02:09:00.347Z,56.40
2019-04-20T02:11:31.354Z,57.10
2019-04-20T02:14:02.410Z,57.30
2019-04-20T02:16:38.770Z,57.50
2019-04-20T02:19:16.328Z,57.80
2019-04-20T02:21:47.626Z,58.20
2019-04-20T02:24:06.391Z,58.30
2019-04-20T02:26:34.784Z,58.50
2019-04-20T02:29:32.433Z,58.80
2019-04-20T02:34:49.589Z,59.80
2019-04-20T02:42:44.793Z,62.00
2019-04-20T02:45:18.701Z,62.70
2019-04-20T02:50:14.388Z,64.30
2019-04-20T02:52:50.664Z,65.00
2019-04-20T02:55:14.463Z,65.90
2019-04-20T03:02:31.318Z,68.80
2019-04-20T03:05:03.929Z,69.30
2019-04-20T03:07:34.414Z,69.90
2019-04-20T03:10:10.792Z,70.90
2019-04-20T03:12:44.813Z,70.80
2019-04-20T03:15:09.698Z,72.20
2019-04-20T03:17:45.804Z,73.50
2019-04-20T03:20:19.949Z,75.50
2019-04-20T03:23:11.692Z,76.60
2019-04-20T03:25:46.684Z,78.50
2019-04-20T03:28:15.540Z,80.30
2019-04-20T03:31:20.492Z,81.70
2019-04-20T03:33:44.198Z,83.70
2019-04-20T03:36:09.941Z,84.80
2019-04-20T03:38:20.210Z,87.10
2019-04-20T03:40:50.679Z,88.80
2019-04-20T03:43:09.885Z,90.20
2019-04-20T03:45:47.557Z,91.10
2019-04-20T03:48:31.754Z,92.00
2019-04-20T03:51:04.640Z,92.80
2019-04-20T03:53:39.440Z,93.70
2019-04-20T03:56:28.011Z,94.60
2019-04-20T03:59:01.503Z,95.80
2019-04-20T04:02:09.290Z,96.70
2019-04-20T04:04:27.258Z,98.10
2019-04-20T04:06:47.939Z,98.70
2019-04-20T04:09:23.601Z,99.40
2019-04-20T04:11:56.143Z,99.90
2019-04-20T04:14:17.753Z,99.90
2019-04-20T04:16:53.799Z,99.90
2019-04-20T04:19:25.211Z,99.90
2019-04-20T04:22:06.154Z,99.90
2019-04-20T04:24:31.692Z,99.90
2019-04-20T04:27:05.889Z,99.90
2019-04-20T04:29:47.772Z,99.90
2019-04-20T04:32:26.535Z,99.90
2019-04-20T04:34:43.261Z,99.90
2019-04-20T04:37:17.682Z,99.90
2019-04-20T04:39:51.791Z,99.90
2019-04-20T04:42:22.307Z,99.90
2019-04-20T04:44:44.759Z,99.90
2019-04-20T04:47:08.133Z,99.90
2019-04-20T04:49:40.987Z,99.90
2019-04-20T04:52:12.396Z,99.90
2019-04-20T04:54:47.531Z,99.90
2019-04-20T04:57:11.575Z,99.90
2019-04-20T04:59:42.523Z,99.90
2019-04-20T05:02:13.729Z,99.90
2019-04-20T05:05:25.172Z,99.90
2019-04-20T05:07:44.469Z,99.90
2019-04-20T05:10:05.566Z,99.90
2019-04-20T05:12:37.216Z,99.90
2019-04-20T05:15:14.267Z,99.90
2019-04-20T05:17:57.492Z,99.90
2019-04-20T05:20:31.731Z,99.90
2019-04-20T05:23:04.032Z,99.90
2019-04-20T05:25:57.154Z,99.90
2019-04-20T05:28:20.222Z,99.90
2019-04-20T05:30:45.735Z,99.90
2019-04-20T05:33:21.359Z,99.90
2019-04-20T05:36:00.926Z,98.70
2019-04-20T05:38:41.482Z,97.60
2019-04-20T05:41:01.708Z,96.50
2019-04-20T05:43:38.327Z,95.30
2019-04-20T05:46:16.906Z,94.20
2019-04-20T05:48:50.883Z,93.40
2019-04-20T05:51:25.450Z,92.60
2019-04-20T05:53:54.783Z,91.80
2019-04-20T05:56:26.762Z,90.60
2019-04-20T05:58:52.333Z,89.70
2019-04-20T06:01:27.625Z,88.60
2019-04-20T06:03:55.391Z,87.10
2019-04-20T06:06:30.577Z,85.60
2019-04-20T06:09:06.415Z,83.70
2019-04-20T06:11:37.035Z,82.00
2019-04-20T06:14:10.125Z,80.40
2019-04-20T06:17:27.166Z,78.70
2019-04-20T06:20:00.241Z,77.10
2019-04-20T06:22:35.000Z,76.20
2019-04-20T06:25:26.181Z,75.50
2019-04-20T06:27:41.122Z,74.10
2019-04-20T06:30:05.874Z,72.40
2019-04-20T06:33:31.314Z,71.80
2019-04-20T06:36:10.951Z,70.60
2019-04-20T06:38:43.117Z,69.70
2019-04-20T06:41:05.229Z,69.10
2019-04-20T06:43:34.907Z,68.90
2019-04-20T06:46:05.694Z,68.00
2019-04-20T06:48:35.835Z,67.20
2019-04-20T06:50:57.721Z,67.10
2019-04-20T06:53:46.554Z,66.50
2019-04-20T06:56:26.648Z,66.00
2019-04-20T06:58:54.856Z,65.50
2019-04-20T07:01:25.151Z,64.80
2019-04-20T07:06:48.034Z,64.30
2019-04-20T07:11:28.248Z,63.40
2019-04-20T07:13:53.392Z,62.80
2019-04-20T07:16:43.215Z,61.90
2019-04-20T07:19:17.208Z,61.30
2019-04-20T07:22:23.129Z,61.20
2019-04-20T07:24:42.907Z,61.20
2019-04-20T07:27:06.647Z,61.20
2019-04-20T07:29:47.528Z,61.20
2019-04-20T07:32:06.390Z,61.30
2019-04-20T07:34:47.465Z,61.40
2019-04-20T07:37:51.807Z,61.60
2019-04-20T07:39:55.828Z,62.00
2019-04-20T07:42:29.032Z,61.20
2019-04-20T07:45:01.300Z,60.60
2019-04-20T07:47:34.725Z,60.20
2019-04-20T07:49:58.315Z,60.20
2019-04-20T07:52:08.396Z,60.20
2019-04-20T07:55:19.110Z,60.30
2019-04-20T07:57:24.464Z,59.80
2019-04-20T08:00:00.386Z,59.60
2019-04-20T08:02:57.278Z,59.90
2019-04-20T08:05:25.573Z,59.90
2019-04-20T08:07:57.223Z,60.00
2019-04-20T08:10:36.538Z,59.90
2019-04-20T08:13:21.498Z,60.20
2019-04-20T08:15:49.202Z,60.40
2019-04-20T08:18:13.679Z,60.40
2019-04-20T08:20:46.490Z,60.60
2019-04-20T08:23:21.974Z,59.90
2019-04-20T08:25:39.803Z,59.90
2019-04-20T08:28:16.641Z,60.20
2019-04-20T08:31:05.026Z,60.30
2019-04-20T08:33:45.185Z,60.30
2019-04-20T08:36:17.110Z,59.90
2019-04-20T08:39:06.436Z,59.80
2019-04-20T08:41:12.822Z,59.80
2019-04-20T08:43:53.112Z,59.60
2019-04-20T08:46:23.454Z,59.60
2019-04-20T08:48:50.842Z,59.20
2019-04-20T08:51:25.313Z,58.60
2019-04-20T08:53:56.367Z,58.90
2019-04-20T08:56:18.815Z,58.40
2019-04-20T08:58:39.691Z,58.40
2019-04-20T09:01:14.168Z,58.80
2019-04-20T09:03:52.998Z,59.10
2019-04-20T09:06:30.974Z,58.90
2019-04-20T09:08:53.663Z,58.50
2019-04-20T09:11:31.051Z,58.40
2019-04-20T09:13:52.007Z,56.70
2019-04-20T09:16:26.948Z,57.10
2019-04-20T09:18:57.869Z,57.10
2019-04-20T09:21:32.930Z,57.00
2019-04-20T09:24:22.770Z,56.50
2019-04-20T09:26:42.916Z,55.40
2019-04-20T09:29:12.774Z,55.10
2019-04-20T09:31:47.220Z,55.30
2019-04-20T09:34:51.194Z,54.50
2019-04-20T09:37:38.452Z,54.10
2019-04-20T09:40:21.327Z,54.50
2019-04-20T09:42:40.007Z,52.50
2019-04-20T09:45:21.356Z,52.70
2019-04-20T09:47:49.417Z,52.70
2019-04-20T09:50:31.841Z,52.30
2019-04-20T09:53:02.430Z,52.30
2019-04-20T09:55:31.299Z,52.40
2019-04-20T09:58:04.923Z,51.50
2019-04-20T10:00:44.008Z,50.40
2019-04-20T10:03:00.216Z,48.60
2019-04-20T10:05:31.526Z,47.20
2019-04-20T10:08:04.932Z,47.80
2019-04-20T10:10:38.893Z,47.90
2019-04-20T10:13:06.007Z,48.00
2019-04-20T10:15:37.447Z,47.90
2019-04-20T10:18:09.943Z,47.20
2019-04-20T10:20:41.819Z,45.80
2019-04-20T10:23:12.455Z,44.60
2019-04-20T10:25:42.640Z,44.10
2019-04-20T10:28:13.849Z,43.60
2019-04-20T10:30:44.419Z,44.60
2019-04-20T10:33:17.673Z,43.90
2019-04-20T10:35:47.703Z,42.90
2019-04-20T10:38:21.549Z,42.20
2019-04-20T10:41:03.467Z,42.10
2019-04-20T10:43:23.962Z,41.90
2019-04-20T10:45:55.016Z,41.40
2019-04-20T10:48:24.856Z,40.90
2019-04-20T10:50:54.843Z,42.00
2019-04-20T10:53:25.985Z,41.90
2019-04-20T10:55:55.960Z,42.20
2019-04-20T10:58:25.742Z,41.20
2019-04-20T11:00:55.767Z,41.30
2019-04-20T11:03:26.738Z,41.60
2019-04-20T11:05:56.777Z,42.10
2019-04-20T11:08:26.662Z,42.20
2019-04-20T11:11:08.405Z,41.50
2019-04-20T11:13:27.997Z,39.80
2019-04-20T11:15:57.946Z,39.80
2019-04-20T11:18:29.119Z,40.30
2019-04-20T11:20:59.476Z,40.20
2019-04-20T11:23:31.759Z,39.20
2019-04-20T11:26:02.192Z,39.50
2019-04-20T11:28:32.375Z,39.30
2019-04-20T11:31:02.324Z,39.40
2019-04-20T11:33:32.205Z,40.80
2019-04-20T11:36:03.209Z,40.80
2019-04-20T11:38:33.227Z,41.00
2019-04-20T11:41:11.204Z,40.90
2019-04-20T11:43:35.681Z,41.20
2019-04-20T11:46:06.876Z,41.80
2019-04-20T11:48:37.213Z,42.20
2019-04-20T11:51:07.530Z,42.10
2019-04-20T11:53:38.580Z,41.90
2019-04-20T11:56:15.915Z,41.90
2019-04-20T11:58:40.700Z,41.90
2019-04-20T12:01:54.736Z,41.20
2019-04-20T12:04:42.248Z,40.80
2019-04-20T12:07:06.731Z,41.00
2019-04-20T12:09:37.709Z,40.40
2019-04-20T12:12:21.425Z,39.00
2019-04-20T12:14:40.845Z,38.30
2019-04-20T12:17:11.529Z,38.50
2019-04-20T12:19:41.945Z,38.60
2019-04-20T12:22:11.912Z,37.00
2019-04-20T12:24:42.332Z,36.00
2019-04-20T12:27:12.592Z,36.80
2019-04-20T12:29:43.623Z,35.50
2019-04-20T12:32:14.637Z,34.90
2019-04-20T12:34:45.445Z,34.90
2019-04-20T12:37:15.454Z,34.60
2019-04-20T12:39:49.189Z,33.60
2019-04-20T12:42:19.298Z,33.90
2019-04-20T12:44:50.094Z,35.60
2019-04-20T12:47:21.369Z,35.30
2019-04-20T12:49:51.713Z,33.80
2019-04-20T12:52:22.794Z,32.80
2019-04-20T12:54:52.702Z,33.00
2019-04-20T12:57:22.728Z,33.50
2019-04-20T12:59:54.071Z,33.60
2019-04-20T13:02:25.130Z,36.20
2019-04-20T13:04:55.490Z,36.80
2019-04-20T13:07:26.640Z,36.50
2019-04-20T13:09:56.951Z,36.60
2019-04-20T13:12:50.242Z,36.00
2019-04-20T13:15:46.572Z,36.90
2019-04-20T13:18:19.170Z,37.50
2019-04-20T13:20:50.069Z,37.20
2019-04-20T13:23:20.587Z,37.20
2019-04-20T13:25:50.853Z,37.10
2019-04-20T13:28:21.162Z,37.30
2019-04-20T13:30:50.994Z,36.50
2019-04-20T13:33:20.784Z,34.60
2019-04-20T13:35:50.630Z,34.50
2019-04-20T13:38:20.424Z,35.60
2019-04-20T13:40:51.507Z,36.10
2019-04-20T13:43:21.678Z,36.10
2019-04-20T13:45:53.056Z,35.90
2019-04-20T13:48:23.052Z,36.40
2019-04-20T13:50:53.931Z,36.40
2019-04-20T13:53:24.187Z,36.50
2019-04-20T13:55:56.028Z,36.10
2019-04-20T13:58:45.738Z,36.30
2019-04-20T14:01:41.166Z,36.00
2019-04-20T14:04:20.583Z,36.20
2019-04-20T14:06:51.498Z,36.00
2019-04-20T14:09:21.493Z,35.70
2019-04-20T14:11:51.753Z,35.90
2019-04-20T14:14:23.321Z,35.90
2019-04-20T14:16:53.263Z,35.10
2019-04-20T14:19:23.292Z,34.00
2019-04-20T14:21:54.270Z,33.50
2019-04-20T14:24:24.798Z,33.90
2019-04-20T14:26:54.887Z,34.30
2019-04-20T14:29:25.190Z,34.90
2019-04-20T14:31:55.691Z,35.30
2019-04-20T14:34:26.962Z,35.60
2019-04-20T14:37:00.076Z,35.80
2019-04-20T14:39:30.283Z,35.30
2019-04-20T14:42:00.496Z,35.30
2019-04-20T14:44:30.402Z,35.50
2019-04-20T14:47:00.182Z,35.60
2019-04-20T14:49:31.019Z,35.20
2019-04-20T14:52:02.510Z,35.30
2019-04-20T14:54:32.244Z,35.00
2019-04-20T14:57:03.320Z,34.80
2019-04-20T14:59:41.247Z,34.60
2019-04-20T15:02:13.476Z,34.50
2019-04-20T15:04:43.675Z,34.20
2019-04-20T15:07:14.910Z,34.30
2019-04-20T15:09:44.917Z,34.20
2019-04-20T15:12:15.048Z,34.10
2019-04-20T15:14:45.161Z,33.70
2019-04-20T15:17:29.810Z,33.70
2019-04-20T15:20:21.962Z,33.70
2019-04-20T15:22:53.777Z,33.50
2019-04-20T15:25:23.764Z,33.30
2019-04-20T15:27:54.474Z,32.50
2019-04-20T15:30:24.749Z,32.70
2019-04-20T15:32:54.714Z,32.00
2019-04-20T15:35:25.052Z,31.70
2019-04-20T15:37:57.290Z,31.80
2019-04-20T15:40:28.922Z,31.00
2019-04-20T15:43:09.567Z,30.30
2019-04-20T15:45:31.481Z,30.10
2019-04-20T15:48:01.826Z,30.60
2019-04-20T15:50:31.860Z,30.10
2019-04-20T15:53:02.647Z,30.00
2019-04-20T15:55:37.962Z,29.30
2019-04-20T15:58:06.714Z,29.00
2019-04-20T16:00:38.276Z,28.90
2019-04-20T16:03:25.547Z,29.10
2019-04-20T16:06:03.577Z,28.90
2019-04-20T16:08:34.815Z,28.80
2019-04-20T16:11:07.001Z,29.40
2019-04-20T16:13:40.243Z,29.90
2019-04-20T16:16:10.028Z,30.10
2019-04-20T16:18:41.082Z,30.30
2019-04-20T16:21:16.141Z,30.10
2019-04-20T16:23:58.819Z,30.20
2019-04-20T16:26:44.110Z,30.20
2019-04-20T16:29:15.381Z,30.30
2019-04-20T16:31:48.406Z,30.50
2019-04-20T16:34:17.076Z,30.60
2019-04-20T16:36:48.419Z,30.60
2019-04-20T16:39:18.561Z,30.60
2019-04-20T16:41:48.586Z,30.50
2019-04-20T16:44:18.586Z,30.30
2019-04-20T16:46:48.490Z,30.40
2019-04-20T16:49:19.271Z,30.60
2019-04-20T16:51:49.413Z,30.80
2019-04-20T16:54:21.794Z,30.90
2019-04-20T16:56:52.728Z,31.00
2019-04-20T16:59:24.753Z,31.10
2019-04-20T17:01:56.059Z,31.00
2019-04-20T17:04:26.896Z,31.00
2019-04-20T17:07:16.537Z,31.30
2019-04-20T17:09:47.427Z,31.50
2019-04-20T17:12:17.776Z,32.60
2019-04-20T17:14:47.749Z,32.00
2019-04-20T17:17:17.940Z,32.10
2019-04-20T17:19:49.257Z,32.80
2019-04-20T17:22:19.523Z,33.10
2019-04-20T17:24:49.503Z,33.40
2019-04-20T17:27:49.156Z,33.70
2019-04-20T17:30:59.264Z,34.00
2019-04-20T17:34:01.316Z,34.50
2019-04-20T17:36:27.208Z,34.70
2019-04-20T17:38:57.899Z,35.10
2019-04-20T17:41:46.421Z,35.10
2019-04-20T17:44:15.769Z,35.10
2019-04-20T17:46:43.922Z,35.10
2019-04-20T17:49:22.599Z,35.00
2019-04-20T17:51:57.979Z,35.10
2019-04-20T17:54:19.756Z,35.10
2019-04-20T17:56:49.843Z,35.40
2019-04-20T17:59:20.127Z,35.70
2019-04-20T18:02:21.736Z,36.00
2019-04-20T18:05:12.615Z,36.30
2019-04-20T18:07:41.129Z,36.60
2019-04-20T18:10:16.091Z,36.90
2019-04-20T18:12:32.325Z,37.10
2019-04-20T18:15:15.353Z,37.20
2019-04-20T18:18:00.040Z,37.40
2019-04-20T18:20:28.312Z,37.40
2019-04-20T18:22:58.843Z,37.70
2019-04-20T18:26:00.288Z,37.80
2019-04-20T18:28:14.939Z,37.90
2019-04-20T18:30:55.280Z,38.10
2019-04-20T18:33:26.014Z,38.20
2019-04-20T18:35:54.141Z,38.20
2019-04-20T18:38:24.144Z,38.00
2019-04-20T18:41:01.207Z,38.40
2019-04-20T18:43:27.966Z,38.60
2019-04-20T18:46:14.629Z,38.80
2019-04-20T18:48:49.521Z,39.10
2019-04-20T18:51:01.678Z,39.50
2019-04-20T18:53:37.462Z,39.70
2019-04-20T18:56:04.730Z,40.00
2019-04-20T18:58:35.349Z,40.10
2019-04-20T19:01:05.416Z,40.30
2019-04-20T19:03:40.835Z,40.50
2019-04-20T19:06:08.714Z,40.50
2019-04-20T19:08:45.217Z,40.70
2019-04-20T19:11:16.152Z,40.80
2019-04-20T19:13:49.478Z,40.90
2019-04-20T19:16:34.445Z,41.10
2019-04-20T19:19:16.926Z,41.40
2019-04-20T19:21:37.910Z,41.50
2019-04-20T19:24:12.682Z,41.40
2019-04-20T19:26:45.001Z,41.50
2019-04-20T19:29:19.067Z,41.50
2019-04-20T19:32:05.643Z,41.30
2019-04-20T19:34:29.983Z,41.20
2019-04-20T19:37:00.341Z,41.20
2019-04-20T19:39:31.233Z,41.40
2019-04-20T19:41:59.727Z,41.70
2019-04-20T19:44:33.211Z,41.80
2019-04-20T19:47:10.646Z,42.30
2019-04-20T19:49:36.362Z,42.60
2019-04-20T19:52:25.186Z,42.90
2019-04-20T19:54:46.791Z,43.10
2019-04-20T19:57:19.796Z,43.40
2019-04-20T19:59:38.728Z,43.60
2019-04-20T20:02:01.711Z,43.80
2019-04-20T20:04:39.000Z,43.90
2019-04-20T20:07:10.790Z,43.90
2019-04-20T20:09:39.585Z,44.10
2019-04-20T20:12:13.073Z,44.30
2019-04-20T20:14:45.707Z,44.40
2019-04-20T20:17:32.969Z,44.50
2019-04-20T20:20:06.850Z,45.30
2019-04-20T20:22:25.480Z,44.80
2019-04-20T20:24:47.163Z,45.00
2019-04-20T20:27:31.361Z,45.20
2019-04-20T20:30:03.795Z,45.30
2019-04-20T20:32:39.067Z,45.40
2019-04-20T20:35:02.675Z,45.60
2019-04-20T20:37:34.735Z,45.60
2019-04-20T20:40:13.555Z,45.70
2019-04-20T20:42:47.235Z,46.00
2019-04-20T20:45:14.566Z,46.00
2019-04-20T20:47:55.076Z,46.10
2019-04-20T20:50:28.495Z,46.20
2019-04-20T20:52:49.624Z,46.40
2019-04-20T20:55:23.318Z,46.40
2019-04-20T20:57:50.814Z,46.50
2019-04-20T21:00:22.656Z,46.50
2019-04-20T21:02:52.847Z,46.80
2019-04-20T21:05:17.603Z,46.80
2019-04-20T21:07:51.222Z,46.80
2019-04-20T21:10:26.913Z,46.90
2019-04-20T21:12:57.372Z,46.90
2019-04-20T21:15:26.213Z,47.00
2019-04-20T21:18:17.424Z,46.90
2019-04-20T21:20:47.853Z,46.20
2019-04-20T21:23:13.574Z,46.20
2019-04-20T21:25:43.246Z,46.30
2019-04-20T21:28:10.905Z,46.50
2019-04-20T21:30:44.739Z,47.50
2019-04-20T21:33:13.205Z,46.90
2019-04-20T21:35:48.317Z,46.90
2019-04-20T21:38:17.195Z,46.60
2019-04-20T21:40:49.681Z,46.60
2019-04-20T21:43:20.709Z,46.30
2019-04-20T21:45:58.091Z,46.40
2019-04-20T21:48:40.576Z,46.50
2019-04-20T21:51:11.518Z,46.60
2019-04-20T21:53:30.483Z,46.90
2019-04-20T21:55:57.771Z,46.90
2019-04-20T21:58:33.295Z,47.20
2019-04-20T22:01:10.329Z,46.80
2019-04-20T22:03:32.250Z,47.10
2019-04-20T22:06:07.434Z,47.10
2019-04-20T22:08:44.156Z,47.00
2019-04-20T22:11:11.625Z,47.00
2019-04-20T22:13:44.003Z,46.70
2019-04-20T22:16:15.162Z,46.80
2019-04-20T22:18:51.822Z,47.10
2019-04-20T22:21:27.818Z,46.70
2019-04-20T22:24:05.516Z,46.70
2019-04-20T22:26:30.727Z,46.90
2019-04-20T22:28:54.172Z,46.80
2019-04-20T22:31:24.441Z,47.00
2019-04-20T22:33:54.487Z,47.10
2019-04-20T22:36:32.452Z,47.20
2019-04-20T22:39:15.698Z,47.30
2019-04-20T22:41:58.642Z,47.60
2019-04-20T22:44:26.491Z,47.60
2019-04-20T22:46:56.190Z,47.40
2019-04-20T22:49:41.321Z,47.70
2019-04-20T22:52:06.150Z,47.50
2019-04-20T22:54:46.635Z,47.40
2019-04-20T22:57:11.766Z,47.30
2019-04-20T22:59:43.293Z,47.60
2019-04-20T23:02:07.578Z,47.60
2019-04-20T23:04:37.346Z,47.60
2019-04-20T23:07:08.428Z,47.40
2019-04-20T23:09:45.956Z,47.60
2019-04-20T23:12:15.750Z,47.60
2019-04-20T23:14:42.428Z,47.60
2019-04-20T23:17:12.508Z,47.30
2019-04-20T23:19:48.591Z,47.30
2019-04-20T23:22:15.559Z,47.80
2019-04-20T23:24:45.348Z,47.30
2019-04-20T23:27:20.049Z,47.30
2019-04-20T23:29:46.936Z,47.40
2019-04-20T23:32:18.146Z,47.20
2019-04-20T23:34:55.628Z,47.20
2019-04-20T23:37:27.852Z,47.20
2019-04-20T23:39:52.766Z,47.30
2019-04-20T23:42:32.840Z,47.20
2019-04-20T23:45:30.557Z,47.30
2019-04-20T23:48:03.040Z,47.10
2019-04-20T23:50:46.186Z,47.10
2019-04-20T23:53:19.851Z,47.00
2019-04-20T23:55:33.872Z,46.80
2019-04-20T23:58:07.052Z,47.00
